CYQB

Quebec / Jean Lesage International Airport

Quebec, , Canada
METAR CYQB 230700Z 00000KT 15SM SKC M16/M18 A3074 RMK SLP419
Observed Flight Rules
Feb-23 @ 07:00 UTC (an hour ago) Visual Flight Rules
Wind Visibility Clouds
Calm 15 miles
  • Clear skies
Temperatures Readings
Current -16°C / 3°F
Dewpoint -18°C / -0°F
Humidity 85%
Altimeter 30.74" Hg
Pressure 1041.9 hPa
Elevation 73
METAR CYQB 230700Z 00000KT 15SM SKC M16/M18 A3074 RMK SLP419
Observed Flight Rules
Feb-23 @ 07:00 UTC
(an hour ago)
VFR
Wind Visibility
Calm 15 miles
Clouds
  • Clear skies
Temperature Dewpoint
-16°C / 3°F -18°C / -0°F
Humidity Altimeter Pressure
85% 30.74" Hg 1041.9 hPa